Time;durP1;ratioP1;P1;durP2;ratioP2;P2;SDS_P1;SDS_P2;PMS_P1;PMS_P2;Temp;Humidity;BMP_temperature;BMP_pressure;BME280_temperature;BME280_humidity;BME280_pressure;Samples;Min_cycle;Max_cycle;Signal;HPM_P1;HPM_P2
2022/10/07 00:01:26;;;;;;;7.90;2.55;;;6.80;99.90;;;;;;5049573;28;20435;-80
2022/10/07 00:03:51;;;;;;;3.05;1.90;;;6.80;99.90;;;;;;5038462;28;20029;-80
2022/10/07 00:06:19;;;;;;;5.07;2.15;;;6.80;99.90;;;;;;5048079;28;20534;-80
2022/10/07 00:08:47;;;;;;;4.78;2.40;;;6.80;99.90;;;;;;5040132;28;20467;-79
2022/10/07 00:11:24;;;;;;;4.65;2.38;;;6.70;99.90;;;;;;5049191;28;20029;-79
2022/10/07 00:13:58;;;;;;;3.15;2.03;;;6.70;99.90;;;;;;5048572;28;20368;-79
2022/10/07 00:16:26;;;;;;;5.47;2.58;;;6.70;99.90;;;;;;5039212;28;20146;-80
2022/10/07 00:18:56;;;;;;;3.58;2.03;;;6.70;99.90;;;;;;5043426;28;20039;-79
2022/10/07 00:21:22;;;;;;;6.05;2.33;;;6.70;99.90;;;;;;5044436;28;20075;-79
2022/10/07 00:23:48;;;;;;;3.03;2.20;;;6.60;99.90;;;;;;5033647;28;20025;-80
2022/10/07 00:26:17;;;;;;;3.17;1.83;;;6.60;99.90;;;;;;5045590;28;20071;-79
2022/10/07 00:28:43;;;;;;;5.35;2.65;;;6.50;99.90;;;;;;5041197;28;20027;-80
2022/10/07 00:31:13;;;;;;;6.03;2.38;;;6.50;99.90;;;;;;5048864;28;20057;-79
2022/10/07 00:33:40;;;;;;;2.92;1.80;;;6.50;99.90;;;;;;5045195;28;20060;-79
2022/10/07 00:36:27;;;;;;;3.97;2.40;;;6.50;99.90;;;;;;5048453;28;20539;-78
2022/10/07 00:38:58;;;;;;;3.92;2.60;;;6.50;99.90;;;;;;5047071;28;20707;-79
2022/10/07 00:41:31;;;;;;;6.53;1.97;;;6.50;99.90;;;;;;5049799;28;20067;-80
2022/10/07 00:43:58;;;;;;;5.63;2.10;;;6.40;99.90;;;;;;5047199;28;20047;-79
2022/10/07 00:46:32;;;;;;;3.60;2.13;;;6.40;99.90;;;;;;5042532;28;20036;-79
2022/10/07 00:49:05;;;;;;;4.28;2.42;;;6.40;99.90;;;;;;5047846;28;20092;-79
2022/10/07 00:51:32;;;;;;;6.05;2.50;;;6.40;99.90;;;;;;5039604;28;20413;-81
2022/10/07 00:53:59;;;;;;;7.55;2.58;;;6.40;99.90;;;;;;5048925;28;20029;-79
2022/10/07 00:56:26;;;;;;;4.35;2.40;;;6.40;99.90;;;;;;5044600;28;20086;-79
2022/10/07 00:58:52;;;;;;;9.85;2.55;;;6.40;99.90;;;;;;5048755;28;20029;-80
2022/10/07 01:01:19;;;;;;;8.60;2.40;;;6.30;99.90;;;;;;5046665;28;20033;-79
2022/10/07 01:03:47;;;;;;;7.63;2.53;;;6.30;99.90;;;;;;5044045;28;20029;-79
2022/10/07 01:06:12;;;;;;;7.53;2.70;;;6.10;99.90;;;;;;5033284;28;20061;-81
2022/10/07 01:08:38;;;;;;;6.07;2.65;;;6.30;99.90;;;;;;5041110;28;20071;-79
2022/10/07 01:11:40;;;;;;;5.38;2.33;;;6.30;99.90;;;;;;5046360;28;20029;-79
2022/10/07 01:14:40;;;;;;;5.45;2.90;;;6.20;99.90;;;;;;5035976;28;20039;-81
2022/10/07 01:17:29;;;;;;;4.13;2.45;;;6.30;99.90;;;;;;5045525;28;20067;-81
2022/10/07 01:20:14;;;;;;;4.18;2.28;;;6.20;99.90;;;;;;5046383;28;20033;-79
2022/10/07 01:23:04;;;;;;;7.50;2.88;;;6.20;99.90;;;;;;5037386;28;20555;-79
2022/10/07 01:25:33;;;;;;;6.45;2.55;;;6.20;99.90;;;;;;5043855;28;20108;-79
2022/10/07 01:28:08;;;;;;;4.35;2.58;;;6.30;99.90;;;;;;5040396;28;20392;-80
2022/10/07 01:30:40;;;;;;;7.38;2.58;;;6.30;99.90;;;;;;5041048;28;20045;-79
2022/10/07 01:33:11;;;;;;;4.65;2.35;;;6.20;99.90;;;;;;5045699;28;20059;-80
2022/10/07 01:35:39;;;;;;;4.65;2.60;;;6.20;99.90;;;;;;5045036;28;20022;-80
2022/10/07 01:38:08;;;;;;;6.70;2.03;;;6.20;99.90;;;;;;5040378;28;20447;-80
2022/10/07 01:40:39;;;;;;;4.68;2.78;;;6.20;99.90;;;;;;5044558;28;20082;-80
2022/10/07 01:43:05;;;;;;;8.02;2.47;;;6.10;99.90;;;;;;5032290;28;20038;-80
2022/10/07 01:45:34;;;;;;;9.68;2.67;;;6.10;99.90;;;;;;5037493;28;20525;-80
2022/10/07 01:48:00;;;;;;;5.43;2.60;;;6.00;99.90;;;;;;5045689;28;20075;-80
2022/10/07 01:50:28;;;;;;;5.25;2.42;;;6.00;99.90;;;;;;5042941;28;20029;-80
2022/10/07 01:53:20;;;;;;;6.10;2.63;;;6.10;99.90;;;;;;5045221;28;20040;-80
2022/10/07 01:55:59;;;;;;;5.45;2.47;;;6.10;99.90;;;;;;5041023;28;20029;-80
2022/10/07 01:58:57;;;;;;;5.88;2.30;;;6.00;99.90;;;;;;5033319;28;20025;-80
2022/10/07 02:01:31;;;;;;;4.85;2.78;;;5.90;99.90;;;;;;5009421;28;20120;-80
2022/10/07 02:04:19;;;;;;;4.00;2.33;;;5.90;99.90;;;;;;5040906;28;20079;-80
2022/10/07 02:06:59;;;;;;;3.10;2.28;;;6.00;99.90;;;;;;5046758;28;20024;-80
2022/10/07 02:09:37;;;;;;;5.05;2.78;;;5.90;99.90;;;;;;5036950;28;20646;-79
2022/10/07 02:12:43;;;;;;;3.28;2.30;;;5.90;99.90;;;;;;5042878;28;20025;-81
2022/10/07 02:15:22;;;;;;;4.93;2.30;;;5.90;99.90;;;;;;5030454;28;20095;-79
2022/10/07 02:17:53;;;;;;;4.68;2.60;;;5.90;99.90;;;;;;5046932;28;20098;-81
2022/10/07 02:20:24;;;;;;;4.28;2.42;;;5.90;99.90;;;;;;5045044;28;20056;-79
2022/10/07 02:22:51;;;;;;;4.93;2.08;;;5.80;99.90;;;;;;5046432;28;20040;-79
2022/10/07 02:25:19;;;;;;;4.07;2.28;;;5.80;99.90;;;;;;5032420;28;20064;-80
2022/10/07 02:27:47;;;;;;;6.78;2.45;;;5.80;99.90;;;;;;5039100;28;20121;-82
2022/10/07 02:30:15;;;;;;;3.15;2.00;;;5.70;99.90;;;;;;5033860;28;20365;-81
2022/10/07 02:32:46;;;;;;;3.15;2.08;;;5.70;99.90;;;;;;5042229;28;20040;-79
2022/10/07 02:35:19;;;;;;;5.57;2.63;;;5.70;99.90;;;;;;5042385;28;20028;-82
2022/10/07 02:37:47;;;;;;;3.80;2.33;;;5.70;99.90;;;;;;5045576;28;20033;-82
2022/10/07 02:40:13;;;;;;;4.53;2.47;;;5.80;99.90;;;;;;5045154;28;20400;-82
2022/10/07 02:42:50;;;;;;;3.45;2.00;;;5.60;99.90;;;;;;5036530;28;20044;-82
2022/10/07 02:45:22;;;;;;;5.07;2.40;;;5.60;99.90;;;;;;5045878;28;20021;-81
2022/10/07 02:47:53;;;;;;;7.50;2.60;;;5.70;99.90;;;;;;5042942;28;20025;-81
2022/10/07 02:50:22;;;;;;;2.72;1.92;;;5.60;99.90;;;;;;5032851;28;20052;-81
2022/10/07 02:52:53;;;;;;;4.03;2.30;;;5.50;99.90;;;;;;5030204;28;20032;-82
2022/10/07 02:55:23;;;;;;;3.92;2.17;;;5.50;99.90;;;;;;5039263;28;20122;-81
2022/10/07 02:57:53;;;;;;;4.90;2.40;;;5.60;99.90;;;;;;5046091;28;20024;-79
2022/10/07 03:00:19;;;;;;;6.22;2.47;;;5.50;99.90;;;;;;5039677;28;20388;-82
2022/10/07 03:02:56;;;;;;;3.30;2.03;;;5.60;99.90;;;;;;5045434;28;20032;-82
2022/10/07 03:05:24;;;;;;;4.35;2.50;;;5.60;99.90;;;;;;5040789;28;20387;-81
2022/10/07 03:07:58;;;;;;;4.72;2.10;;;5.60;99.90;;;;;;5044111;28;20052;-81
2022/10/07 03:10:25;;;;;;;2.65;2.20;;;5.50;99.90;;;;;;5040634;28;20486;-81
2022/10/07 03:12:51;;;;;;;3.75;2.20;;;5.50;99.90;;;;;;5045934;28;20040;-81
2022/10/07 03:15:16;;;;;;;3.08;2.10;;;5.40;99.90;;;;;;5043848;28;20029;-81
2022/10/07 03:17:42;;;;;;;3.55;2.03;;;5.40;99.90;;;;;;5047092;28;20423;-81
2022/10/07 03:20:08;;;;;;;5.28;2.47;;;5.40;99.90;;;;;;5046461;28;20048;-81
2022/10/07 03:22:34;;;;;;;5.72;2.67;;;5.40;99.90;;;;;;5039865;28;20153;-81
2022/10/07 03:25:00;;;;;;;5.57;2.38;;;5.40;99.90;;;;;;5046272;28;20112;-81
2022/10/07 03:27:25;;;;;;;4.43;2.13;;;5.40;99.90;;;;;;5046957;28;20044;-81
2022/10/07 03:29:53;;;;;;;4.40;2.03;;;5.30;99.90;;;;;;5042470;28;20520;-81
2022/10/07 03:32:18;;;;;;;8.10;2.28;;;5.30;99.90;;;;;;5040772;28;20046;-82
2022/10/07 03:34:44;;;;;;;3.05;2.08;;;5.30;99.90;;;;;;5043239;28;20102;-81
2022/10/07 03:37:09;;;;;;;3.88;2.22;;;5.30;99.90;;;;;;5040067;28;20638;-81
2022/10/07 03:39:34;;;;;;;4.63;2.42;;;5.30;99.90;;;;;;5043172;28;20025;-81
2022/10/07 03:42:00;;;;;;;2.72;2.03;;;5.30;99.90;;;;;;5039673;28;20645;-81
2022/10/07 03:44:25;;;;;;;4.25;2.58;;;5.30;99.90;;;;;;5040276;28;20021;-81
2022/10/07 03:46:51;;;;;;;4.43;2.45;;;5.30;99.90;;;;;;5038156;28;20036;-81
2022/10/07 03:49:17;;;;;;;4.78;2.60;;;5.30;99.90;;;;;;5034718;28;20029;-81
2022/10/07 03:51:42;;;;;;;9.07;2.83;;;5.20;99.90;;;;;;5046463;28;20032;-81
2022/10/07 03:54:08;;;;;;;6.90;2.88;;;5.20;99.90;;;;;;5042433;28;20391;-81
2022/10/07 03:56:33;;;;;;;7.93;3.20;;;5.20;99.90;;;;;;5033866;28;20033;-81
2022/10/07 03:58:59;;;;;;;10.57;2.92;;;5.10;99.90;;;;;;5040881;28;20454;-81
2022/10/07 04:01:25;;;;;;;6.57;3.28;;;5.10;99.90;;;;;;5041031;28;20120;-81
2022/10/07 04:03:51;;;;;;;7.50;3.15;;;5.20;99.90;;;;;;5043140;28;20104;-81
2022/10/07 04:06:17;;;;;;;5.55;2.70;;;5.10;99.90;;;;;;5042335;28;20033;-81
2022/10/07 04:08:43;;;;;;;5.75;2.83;;;5.00;99.90;;;;;;5039944;28;20036;-81
2022/10/07 04:11:09;;;;;;;4.13;2.60;;;5.00;99.90;;;;;;5041501;28;20028;-81
2022/10/07 04:13:35;;;;;;;8.10;3.28;;;5.00;99.90;;;;;;5040324;28;20063;-82
2022/10/07 04:16:06;;;;;;;5.72;3.03;;;5.00;99.90;;;;;;5037429;28;20045;-82
2022/10/07 04:18:32;;;;;;;8.18;2.85;;;5.00;99.90;;;;;;5039690;28;20038;-82
2022/10/07 04:21:01;;;;;;;5.07;3.15;;;5.00;99.90;;;;;;5036937;28;20136;-82
2022/10/07 04:23:27;;;;;;;11.05;3.75;;;5.00;99.90;;;;;;5043972;28;20032;-79
2022/10/07 04:25:52;;;;;;;12.07;5.07;;;5.00;99.90;;;;;;5046057;28;20110;-83
2022/10/07 04:28:23;;;;;;;17.30;4.85;;;4.90;99.90;;;;;;5041351;28;20108;-81
2022/10/07 04:30:50;;;;;;;9.97;4.50;;;5.00;99.90;;;;;;5041781;28;20049;-83
2022/10/07 04:33:17;;;;;;;7.07;3.45;;;4.90;99.90;;;;;;5034583;28;20037;-82
2022/10/07 04:35:43;;;;;;;6.30;3.60;;;4.90;99.90;;;;;;5038369;28;20036;-83
2022/10/07 04:38:12;;;;;;;7.97;3.33;;;4.90;99.90;;;;;;5046534;28;20028;-83
2022/10/07 04:40:40;;;;;;;7.00;3.42;;;4.90;99.90;;;;;;5048190;28;20519;-83
2022/10/07 04:43:18;;;;;;;6.38;3.70;;;4.80;99.90;;;;;;5045981;28;20078;-82
2022/10/07 04:45:52;;;;;;;8.05;3.30;;;4.80;99.90;;;;;;5049625;28;20107;-83
2022/10/07 04:48:20;;;;;;;5.50;3.08;;;4.90;99.90;;;;;;5041530;28;20032;-82
2022/10/07 04:50:46;;;;;;;7.13;2.95;;;4.90;99.90;;;;;;5045691;28;20021;-80
2022/10/07 04:53:13;;;;;;;7.45;3.22;;;4.90;99.90;;;;;;5036417;28;20021;-79
2022/10/07 04:55:42;;;;;;;6.43;3.00;;;4.90;99.90;;;;;;5048887;28;20025;-78
2022/10/07 04:58:09;;;;;;;5.65;3.30;;;4.90;99.90;;;;;;5050689;28;20554;-79
2022/10/07 05:00:39;;;;;;;6.90;3.50;;;4.80;99.90;;;;;;5047711;28;20179;-79
2022/10/07 05:03:05;;;;;;;10.35;3.47;;;4.70;99.90;;;;;;5050860;28;20075;-79
2022/10/07 05:05:30;;;;;;;5.97;3.38;;;4.70;99.90;;;;;;5047405;28;20399;-79
2022/10/07 05:07:56;;;;;;;5.45;3.45;;;4.70;99.90;;;;;;5049006;28;20028;-79
2022/10/07 05:10:21;;;;;;;11.40;3.25;;;4.70;99.90;;;;;;5047243;28;20022;-80
2022/10/07 05:12:47;;;;;;;5.20;2.97;;;4.70;99.90;;;;;;5042953;28;20436;-80
2022/10/07 05:15:12;;;;;;;6.43;3.40;;;4.70;99.90;;;;;;5049829;28;20059;-79
2022/10/07 05:17:40;;;;;;;7.47;3.45;;;4.70;99.90;;;;;;5050699;28;20037;-80
2022/10/07 05:20:08;;;;;;;5.38;3.20;;;4.70;99.90;;;;;;5041872;28;20036;-80
2022/10/07 05:22:33;;;;;;;10.05;3.35;;;4.60;99.90;;;;;;5034842;28;20392;-80
2022/10/07 05:24:59;;;;;;;4.70;2.80;;;4.70;99.90;;;;;;5040416;28;20036;-80
2022/10/07 05:27:24;;;;;;;6.30;3.17;;;4.70;99.90;;;;;;5049513;28;20037;-79
2022/10/07 05:29:50;;;;;;;5.40;2.80;;;4.70;99.90;;;;;;5040186;28;20024;-79
2022/10/07 05:32:16;;;;;;;7.32;3.80;;;4.80;99.90;;;;;;5034579;28;20619;-79
2022/10/07 05:34:43;;;;;;;6.20;3.13;;;4.80;99.90;;;;;;5034694;28;20029;-79
2022/10/07 05:37:10;;;;;;;7.32;3.15;;;4.80;99.90;;;;;;5045183;28;20036;-79
2022/10/07 05:39:35;;;;;;;5.03;3.13;;;4.80;99.90;;;;;;5051169;28;20024;-79
2022/10/07 05:42:01;;;;;;;7.03;3.50;;;4.80;99.90;;;;;;5053281;28;20028;-78
2022/10/07 05:44:26;;;;;;;7.45;3.63;;;4.90;99.90;;;;;;5044062;28;20033;-79
2022/10/07 05:46:52;;;;;;;6.53;3.53;;;4.90;99.90;;;;;;5034745;28;20108;-76
2022/10/07 05:49:17;;;;;;;9.48;3.72;;;5.00;99.90;;;;;;5044332;28;20013;-79
2022/10/07 05:51:43;;;;;;;8.77;3.85;;;5.00;99.90;;;;;;5044056;28;20033;-79
2022/10/07 05:54:08;;;;;;;5.88;3.30;;;5.00;99.90;;;;;;5040088;28;20112;-80
2022/10/07 05:56:35;;;;;;;5.85;3.55;;;5.00;99.90;;;;;;5031424;28;20719;-78
2022/10/07 05:59:02;;;;;;;8.68;3.22;;;5.00;99.90;;;;;;5045831;28;20154;-82
2022/10/07 06:01:27;;;;;;;10.38;3.20;;;5.10;99.90;;;;;;5038301;28;20523;-88
2022/10/07 06:03:56;;;;;;;4.70;2.75;;;5.10;99.90;;;;;;5036887;28;20025;-86
2022/10/07 06:06:22;;;;;;;5.75;2.97;;;5.10;99.90;;;;;;5048632;28;20021;-85
2022/10/07 06:08:48;;;;;;;5.38;3.10;;;5.20;99.90;;;;;;5041370;28;20028;-86
2022/10/07 06:13:59;;;;;;;8.38;3.47;;;5.30;99.90;;;;;;5048324;28;20036;-89
2022/10/07 06:16:25;;;;;;;8.90;3.30;;;5.30;99.90;;;;;;5048041;28;20033;-82
2022/10/07 06:18:52;;;;;;;4.75;3.20;;;5.40;99.90;;;;;;5043890;28;20025;-79
2022/10/07 06:21:19;;;;;;;7.32;3.15;;;5.40;99.90;;;;;;5049499;28;20472;-81
2022/10/07 06:23:51;;;;;;;8.18;3.30;;;5.50;99.90;;;;;;5047738;28;20028;-81
2022/10/07 06:26:17;;;;;;;6.53;3.47;;;5.60;99.90;;;;;;5043077;28;20043;-83
2022/10/07 06:28:42;;;;;;;5.78;3.83;;;5.60;99.90;;;;;;5032635;28;20468;-83
2022/10/07 06:31:13;;;;;;;7.38;3.65;;;5.60;99.90;;;;;;5037550;28;20057;-86
2022/10/07 06:33:42;;;;;;;6.65;3.60;;;5.70;99.90;;;;;;5034551;28;20037;-84
2022/10/07 06:36:12;;;;;;;7.03;4.00;;;5.80;99.90;;;;;;5036153;28;20029;-84
2022/10/07 06:38:45;;;;;;;6.50;3.47;;;5.90;99.90;;;;;;5035502;28;20395;-82
2022/10/07 06:41:10;;;;;;;8.98;3.45;;;5.90;99.90;;;;;;5036124;28;20037;-82
2022/10/07 06:43:36;;;;;;;5.00;3.33;;;6.00;99.90;;;;;;5036847;28;20029;-82
2022/10/07 06:46:04;;;;;;;7.85;3.47;;;6.20;99.90;;;;;;5035507;28;20676;-82
2022/10/07 06:48:32;;;;;;;10.30;4.05;;;6.60;99.90;;;;;;5037039;28;20025;-82
2022/10/07 06:50:59;;;;;;;8.05;3.28;;;6.90;99.90;;;;;;5036093;28;20056;-83
2022/10/07 06:53:25;;;;;;;8.20;3.83;;;7.00;99.90;;;;;;5035475;28;20029;-83
2022/10/07 06:55:58;;;;;;;6.47;3.75;;;7.10;99.90;;;;;;5038602;28;20579;-78
2022/10/07 06:58:24;;;;;;;6.28;3.25;;;7.30;99.90;;;;;;5043339;28;20029;-78
2022/10/07 07:00:51;;;;;;;8.90;3.47;;;7.30;99.90;;;;;;5045456;28;20025;-77
2022/10/07 07:03:16;;;;;;;5.55;3.33;;;7.50;99.90;;;;;;5042254;28;20044;-78
2022/10/07 07:05:43;;;;;;;12.18;3.88;;;7.70;99.90;;;;;;5034771;28;20072;-78
2022/10/07 07:08:08;;;;;;;11.82;3.10;;;7.80;99.90;;;;;;5039281;28;20045;-77
2022/10/07 07:10:39;;;;;;;6.72;2.83;;;8.00;99.90;;;;;;5041412;28;20017;-78
2022/10/07 07:13:06;;;;;;;7.50;2.90;;;8.20;99.90;;;;;;5039676;28;20060;-74
2022/10/07 07:15:33;;;;;;;5.13;2.70;;;8.30;99.90;;;;;;5038940;28;20446;-76
2022/10/07 07:17:59;;;;;;;6.38;3.00;;;8.40;99.90;;;;;;5043728;28;20554;-79
2022/10/07 07:20:25;;;;;;;6.05;3.10;;;8.60;99.90;;;;;;5042172;28;20033;-78
2022/10/07 07:22:53;;;;;;;5.60;3.40;;;8.70;99.90;;;;;;5032136;28;20032;-76
2022/10/07 07:25:19;;;;;;;6.38;3.25;;;8.80;99.90;;;;;;5043030;28;20426;-77
2022/10/07 07:27:47;;;;;;;8.38;3.50;;;8.90;99.90;;;;;;5032205;28;20033;-76
2022/10/07 07:30:13;;;;;;;6.55;2.90;;;9.10;99.90;;;;;;5043449;28;20542;-76
2022/10/07 07:32:39;;;;;;;4.20;2.85;;;9.30;99.90;;;;;;5046763;28;20053;-80
2022/10/07 07:35:06;;;;;;;9.85;3.38;;;9.40;99.90;;;;;;5037387;28;20876;-79
2022/10/07 07:37:32;;;;;;;7.43;2.90;;;9.50;99.90;;;;;;5046308;28;20462;-81
2022/10/07 07:39:58;;;;;;;5.70;2.67;;;9.60;99.90;;;;;;5042093;28;20060;-79
2022/10/07 07:42:23;;;;;;;6.10;3.55;;;9.70;99.90;;;;;;5034650;28;20060;-77
2022/10/07 07:44:49;;;;;;;9.63;3.50;;;9.80;99.90;;;;;;5042509;28;20052;-76
2022/10/07 07:47:15;;;;;;;4.72;2.90;;;9.90;99.90;;;;;;5043855;28;20104;-76
2022/10/07 07:49:41;;;;;;;6.25;3.10;;;10.10;99.90;;;;;;5038199;28;20034;-76
2022/10/07 07:52:08;;;;;;;5.38;2.58;;;10.30;99.90;;;;;;5030034;28;20047;-76
2022/10/07 07:54:36;;;;;;;5.80;2.67;;;10.50;99.90;;;;;;5041173;28;20554;-76
2022/10/07 07:57:02;;;;;;;6.60;2.65;;;10.50;99.90;;;;;;5044233;28;20067;-76
2022/10/07 07:59:30;;;;;;;6.43;2.72;;;10.60;99.90;;;;;;5040710;28;20610;-76
2022/10/07 08:01:56;;;;;;;6.13;2.88;;;10.70;99.90;;;;;;5035152;28;20033;-75
2022/10/07 08:04:22;;;;;;;4.75;2.65;;;10.90;99.90;;;;;;5038037;28;20025;-76
2022/10/07 08:06:48;;;;;;;5.53;3.25;;;11.00;99.90;;;;;;5046464;28;20036;-76
2022/10/07 08:09:13;;;;;;;6.55;2.42;;;11.10;99.90;;;;;;5037366;28;20048;-76
2022/10/07 08:11:44;;;;;;;6.82;2.65;;;11.30;99.90;;;;;;5030372;28;20029;-77
2022/10/07 08:14:14;;;;;;;3.45;2.28;;;11.50;99.90;;;;;;5042601;28;20041;-77
2022/10/07 08:16:42;;;;;;;5.15;2.35;;;11.60;99.90;;;;;;5042874;28;20559;-74
2022/10/07 08:19:08;;;;;;;6.65;2.88;;;11.70;99.90;;;;;;5046347;28;20132;-76
2022/10/07 08:21:34;;;;;;;5.10;2.97;;;11.90;99.90;;;;;;5048732;28;20033;-77
2022/10/07 08:24:02;;;;;;;5.07;2.63;;;12.00;99.90;;;;;;5051582;28;20025;-76
2022/10/07 08:26:36;;;;;;;7.68;2.70;;;12.10;99.90;;;;;;5044620;28;20017;-77
2022/10/07 08:29:03;;;;;;;3.00;2.28;;;12.20;99.90;;;;;;5050619;28;20104;-76
2022/10/07 08:31:29;;;;;;;5.20;2.70;;;12.30;99.90;;;;;;5050352;28;20049;-76
2022/10/07 08:34:02;;;;;;;7.50;2.53;;;12.50;99.90;;;;;;5039907;28;20033;-76
2022/10/07 08:36:31;;;;;;;6.00;2.60;;;12.60;99.90;;;;;;5044403;28;20122;-76
2022/10/07 08:38:57;;;;;;;5.07;2.40;;;12.70;99.90;;;;;;5047280;28;20048;-77
2022/10/07 08:41:44;;;;;;;7.43;2.63;;;12.80;99.90;;;;;;5046864;28;20515;-77
2022/10/07 08:44:12;;;;;;;4.35;2.53;;;12.90;99.90;;;;;;5047287;28;20075;-77
2022/10/07 08:47:16;;;;;;;5.00;2.42;;;13.10;99.90;;;;;;5046380;28;20036;-76
2022/10/07 08:50:03;;;;;;;6.43;2.33;;;13.20;99.90;;;;;;5036936;28;20096;-75
2022/10/07 08:52:40;;;;;;;4.45;2.50;;;13.30;99.90;;;;;;5031220;28;20588;-75
2022/10/07 08:55:31;;;;;;;4.47;2.17;;;13.50;99.90;;;;;;5049915;28;20569;-75
2022/10/07 08:58:30;;;;;;;4.82;2.20;;;13.70;99.90;;;;;;5044257;28;20562;-76
2022/10/07 09:01:21;;;;;;;4.57;2.65;;;13.80;99.90;;;;;;5041343;28;20082;-75
2022/10/07 09:04:14;;;;;;;3.50;2.33;;;14.00;99.90;;;;;;5041860;28;20036;-77
2022/10/07 09:06:51;;;;;;;5.72;2.28;;;14.00;99.90;;;;;;5009072;28;20041;-75
2022/10/07 09:09:38;;;;;;;8.55;2.10;;;14.10;99.90;;;;;;5050073;28;20036;-76
2022/10/07 09:12:08;;;;;;;4.13;2.05;;;14.30;99.10;;;;;;5046188;28;20219;-76
2022/10/07 09:14:38;;;;;;;4.03;1.77;;;14.50;99.30;;;;;;5038394;28;20025;-76
2022/10/07 09:17:11;;;;;;;3.60;1.93;;;14.60;98.00;;;;;;5032199;28;20127;-75
2022/10/07 09:19:45;;;;;;;3.30;1.77;;;14.70;97.60;;;;;;5040366;28;20169;-76
2022/10/07 09:22:37;;;;;;;3.03;1.70;;;14.70;95.70;;;;;;5040984;28;20053;-75
2022/10/07 09:25:19;;;;;;;4.40;1.98;;;14.80;95.60;;;;;;5037035;28;20029;-75
2022/10/07 09:27:44;;;;;;;2.58;2.13;;;14.80;95.80;;;;;;5027037;28;20078;-76
2022/10/07 09:30:14;;;;;;;4.20;1.58;;;14.90;94.10;;;;;;5043250;28;20490;-75
2022/10/07 09:32:43;;;;;;;4.75;1.45;;;15.00;94.30;;;;;;5041521;28;20036;-75
2022/10/07 09:35:13;;;;;;;2.58;1.67;;;15.10;92.60;;;;;;5041449;28;20116;-76
2022/10/07 09:37:57;;;;;;;3.78;1.30;;;15.10;92.90;;;;;;5038146;28;20052;-76
2022/10/07 09:43:30;;;;;;;4.32;1.25;;;15.40;92.00;;;;;;5045486;28;20035;-75
2022/10/07 09:45:57;;;;;;;2.72;1.50;;;15.60;91.30;;;;;;5047344;28;20052;-75
2022/10/07 09:48:26;;;;;;;4.68;1.50;;;15.70;91.60;;;;;;5045867;28;20025;-75
2022/10/07 09:51:14;;;;;;;3.05;1.58;;;15.80;90.60;;;;;;5043994;28;20455;-74
2022/10/07 09:54:01;;;;;;;3.97;1.40;;;16.00;90.80;;;;;;5046621;28;20037;-75
2022/10/07 09:56:46;;;;;;;4.88;1.63;;;16.10;89.70;;;;;;5037369;28;20037;-75
2022/10/07 09:59:30;;;;;;;4.97;1.30;;;16.30;89.50;;;;;;5037447;28;20511;-76
2022/10/07 10:02:12;;;;;;;1.67;1.27;;;16.30;88.00;;;;;;5045012;28;20033;-76
2022/10/07 10:04:53;;;;;;;2.72;1.20;;;16.30;87.30;;;;;;5044521;28;20108;-77
2022/10/07 10:07:27;;;;;;;1.52;1.35;;;16.30;86.20;;;;;;5040579;28;20025;-75
2022/10/07 10:09:56;;;;;;;2.22;1.30;;;16.50;87.30;;;;;;5045844;28;20029;-76
2022/10/07 10:12:23;;;;;;;1.17;0.98;;;16.70;87.20;;;;;;5038669;28;20106;-76
2022/10/07 10:14:54;;;;;;;4.68;2.10;;;16.90;85.60;;;;;;5045341;28;20033;-75
2022/10/07 10:17:34;;;;;;;2.05;1.40;;;17.00;85.00;;;;;;5045540;28;20036;-76
2022/10/07 10:20:22;;;;;;;6.80;1.33;;;16.90;82.30;;;;;;5034997;28;20044;-75
2022/10/07 10:22:47;;;;;;;2.88;1.35;;;17.00;80.90;;;;;;5042849;28;20083;-76
2022/10/07 10:28:43;;;;;;;1.67;1.10;;;17.10;81.90;;;;;;5042863;28;20427;-77
2022/10/07 10:31:34;;;;;;;3.35;1.25;;;17.40;80.00;;;;;;5048432;28;20056;-77
2022/10/07 10:34:23;;;;;;;1.45;1.13;;;17.40;78.90;;;;;;5048621;28;20070;-76
2022/10/07 10:37:00;;;;;;;3.33;1.27;;;17.50;77.70;;;;;;5045661;28;20041;-77
2022/10/07 10:39:50;;;;;;;3.13;1.10;;;17.50;75.50;;;;;;5045828;28;20029;-76
2022/10/07 10:42:23;;;;;;;3.38;1.27;;;17.80;73.90;;;;;;5031052;28;20464;-76
2022/10/07 10:45:06;;;;;;;2.22;1.10;;;18.20;73.70;;;;;;5028239;28;20021;-76
2022/10/07 10:48:01;;;;;;;2.70;1.42;;;18.30;73.90;;;;;;5043260;28;20683;-76
2022/10/07 10:50:52;;;;;;;5.82;1.92;;;18.80;70.20;;;;;;5046414;28;20025;-76
2022/10/07 10:53:43;;;;;;;3.80;1.02;;;19.70;66.30;;;;;;5037526;28;20636;-77
2022/10/07 10:56:23;;;;;;;1.42;1.15;;;21.70;62.10;;;;;;5047869;28;20631;-76
2022/10/07 10:59:08;;;;;;;1.67;0.98;;;22.90;57.30;;;;;;5036325;28;20498;-77
2022/10/07 11:01:37;;;;;;;4.07;1.25;;;24.30;53.00;;;;;;5042003;28;20033;-76
2022/10/07 11:04:40;;;;;;;4.55;1.20;;;25.40;49.80;;;;;;5030459;28;20108;-76
2022/10/07 11:07:20;;;;;;;2.72;0.98;;;25.90;48.40;;;;;;5028384;28;20022;-77
2022/10/07 11:09:55;;;;;;;3.50;1.02;;;28.30;43.20;;;;;;5034870;28;20071;-76
2022/10/07 11:12:28;;;;;;;5.57;1.20;;;28.80;41.60;;;;;;5047365;28;20037;-76
2022/10/07 11:14:58;;;;;;;1.52;1.10;;;29.50;40.20;;;;;;5047829;28;20029;-77
2022/10/07 11:17:29;;;;;;;1.77;0.88;;;30.10;39.00;;;;;;5047837;28;20079;-76
2022/10/07 11:20:07;;;;;;;3.22;1.10;;;28.90;38.40;;;;;;5044590;28;20037;-76
2022/10/07 11:22:40;;;;;;;0.85;0.70;;;29.10;37.30;;;;;;5045573;28;20031;-76
2022/10/07 11:25:24;;;;;;;1.73;0.80;;;28.80;39.10;;;;;;5047722;28;20351;-76
2022/10/07 11:27:54;;;;;;;4.13;1.00;;;29.60;38.10;;;;;;5047949;28;20029;-76
2022/10/07 11:30:22;;;;;;;2.30;1.08;;;29.90;38.40;;;;;;5044968;28;20041;-76
2022/10/07 11:33:06;;;;;;;2.22;1.17;;;30.90;36.80;;;;;;5047058;28;20559;-77
2022/10/07 11:35:46;;;;;;;1.70;1.00;;;30.30;36.00;;;;;;5045045;28;20041;-76
2022/10/07 11:38:20;;;;;;;4.70;1.00;;;29.30;37.00;;;;;;5045770;28;20025;-76
2022/10/07 11:41:16;;;;;;;1.25;0.85;;;31.50;35.90;;;;;;5045226;28;20404;-76
2022/10/07 11:43:52;;;;;;;2.63;1.10;;;33.60;32.80;;;;;;5047704;28;20029;-77
2022/10/07 11:46:39;;;;;;;2.38;1.20;;;33.20;32.30;;;;;;5047086;28;20024;-76
2022/10/07 11:49:21;;;;;;;1.85;1.00;;;33.20;32.40;;;;;;5048644;28;20130;-76
2022/10/07 11:52:01;;;;;;;6.32;1.20;;;34.60;31.00;;;;;;5053742;28;20112;-77
2022/10/07 11:54:49;;;;;;;2.23;0.93;;;34.60;30.40;;;;;;5048297;28;20033;-76
2022/10/07 11:57:20;;;;;;;3.78;1.10;;;32.90;32.10;;;;;;5033028;28;20079;-76
2022/10/07 12:00:15;;;;;;;6.60;1.42;;;32.30;33.50;;;;;;5038157;28;20459;-75
2022/10/07 12:02:43;;;;;;;3.33;1.10;;;33.00;32.70;;;;;;5040300;28;20826;-75
2022/10/07 12:05:33;;;;;;;3.00;1.33;;;31.80;34.80;;;;;;5034173;28;20021;-76
2022/10/07 12:08:22;;;;;;;1.95;1.17;;;27.90;39.70;;;;;;5034336;28;20022;-75
2022/10/07 12:10:52;;;;;;;3.42;1.20;;;26.30;42.00;;;;;;5023260;28;20037;-75
2022/10/07 12:13:19;;;;;;;7.85;1.42;;;27.30;42.40;;;;;;5052238;28;20423;-75
2022/10/07 12:15:46;;;;;;;3.45;1.20;;;26.60;41.10;;;;;;5047282;28;20037;-76
2022/10/07 12:18:16;;;;;;;3.60;1.17;;;24.30;45.90;;;;;;5032166;28;20036;-75
2022/10/07 12:20:50;;;;;;;0.95;0.90;;;23.20;47.90;;;;;;5034681;28;20033;-75
2022/10/07 12:23:19;;;;;;;1.88;0.98;;;25.80;46.30;;;;;;5050578;28;20032;-75
2022/10/07 12:25:49;;;;;;;3.22;1.40;;;27.20;42.50;;;;;;5051055;28;20438;-75
2022/10/07 12:28:34;;;;;;;2.42;1.38;;;24.90;44.30;;;;;;5053825;28;20206;-75
2022/10/07 12:31:02;;;;;;;1.33;0.88;;;24.60;45.80;;;;;;5053406;28;20222;-75
2022/10/07 12:33:50;;;;;;;5.90;1.35;;;25.50;45.10;;;;;;5052594;28;20086;-75
2022/10/07 12:36:22;;;;;;;2.50;0.98;;;28.30;40.80;;;;;;5049540;28;20039;-75
2022/10/07 12:38:59;;;;;;;1.15;0.90;;;31.00;36.80;;;;;;5053983;28;20033;-75
2022/10/07 12:41:30;;;;;;;3.13;1.20;;;28.70;37.50;;;;;;5050611;28;20044;-75
2022/10/07 12:44:07;;;;;;;1.45;1.35;;;25.20;44.80;;;;;;5052658;28;20021;-74
2022/10/07 12:46:41;;;;;;;4.03;1.30;;;23.80;50.00;;;;;;5054076;28;20021;-74
2022/10/07 12:49:35;;;;;;;3.58;1.80;;;25.40;45.90;;;;;;5049969;28;20029;-74
2022/10/07 12:52:10;;;;;;;3.08;1.52;;;24.60;47.60;;;;;;5051875;28;20033;-75
2022/10/07 12:54:48;;;;;;;3.15;1.38;;;24.10;47.40;;;;;;5037935;28;20029;-75
2022/10/07 12:57:20;;;;;;;1.42;1.05;;;25.40;45.10;;;;;;5050752;28;20060;-75
2022/10/07 13:00:00;;;;;;;2.13;1.20;;;29.70;40.10;;;;;;5048791;28;20036;-75
2022/10/07 13:03:08;;;;;;;3.60;1.27;;;33.70;35.50;;;;;;5049705;28;20056;-75
2022/10/07 13:05:37;;;;;;;1.58;1.10;;;35.10;32.00;;;;;;5049976;28;20116;-75
2022/10/07 13:08:44;;;;;;;2.33;1.20;;;37.20;31.00;;;;;;5045046;28;20493;-75
2022/10/07 13:11:38;;;;;;;2.58;1.20;;;38.60;28.40;;;;;;5046575;28;20109;-75
2022/10/07 13:14:21;;;;;;;1.90;1.27;;;37.40;29.60;;;;;;5047297;28;20516;-74
2022/10/07 13:17:24;;;;;;;5.88;1.02;;;35.50;30.00;;;;;;5044781;28;20029;-74
2022/10/07 13:19:55;;;;;;;1.63;1.30;;;36.80;29.40;;;;;;5049839;28;20037;-75
2022/10/07 13:22:23;;;;;;;;;;;37.20;29.00;;;;;;5050844;28;20108;-75
2022/10/07 13:24:52;;;;;;;2.00;1.30;;;36.10;29.40;;;;;;5049409;28;19908;-74
2022/10/07 13:27:24;;;;;;;4.57;1.50;;;35.90;30.30;;;;;;5041174;28;20029;-74
2022/10/07 13:29:49;;;;;;;1.63;1.05;;;35.80;29.70;;;;;;5045353;28;20040;-75